Time;durP1;ratioP1;P1;durP2;ratioP2;P2;SDS_P1;SDS_P2;PMS_P1;PMS_P2;Temp;Humidity;BMP_temperature;BMP_pressure;BME280_temperature;BME280_humidity;BME280_pressure;Samples;Min_cycle;Max_cycle;Signal;HPM_P1;HPM_P2
2022/07/16 00:02:34;;;;;;;13.68;2.08;;;16.10;99.90;;;;;;4946374;28;205399;-72
2022/07/16 00:05:00;;;;;;;6.75;1.95;;;16.10;99.90;;;;;;4944820;28;262364;-72
2022/07/16 00:07:26;;;;;;;7.82;1.80;;;16.10;99.90;;;;;;4926635;28;206996;-72
2022/07/16 00:09:53;;;;;;;7.30;1.92;;;16.10;99.90;;;;;;4960114;28;186847;-72
2022/07/16 00:12:19;;;;;;;8.35;1.95;;;16.10;99.90;;;;;;4906575;28;190379;-72
2022/07/16 00:14:45;;;;;;;7.70;2.00;;;16.10;99.90;;;;;;4956333;28;274514;-73
2022/07/16 00:17:11;;;;;;;7.50;2.00;;;16.10;99.90;;;;;;4945769;28;209775;-72
2022/07/16 00:19:37;;;;;;;8.02;2.13;;;16.10;99.90;;;;;;4953241;28;221130;-72
2022/07/16 00:22:03;;;;;;;6.40;1.85;;;16.10;99.90;;;;;;4925653;28;205033;-72
2022/07/16 00:24:29;;;;;;;8.18;2.03;;;16.10;99.90;;;;;;4953444;28;261495;-72
2022/07/16 00:26:55;;;;;;;8.55;2.05;;;16.10;99.90;;;;;;4928026;28;205609;-72
2022/07/16 00:29:22;;;;;;;7.45;2.10;;;16.10;99.90;;;;;;4950399;28;274350;-72
2022/07/16 00:31:50;;;;;;;8.98;2.30;;;16.10;99.90;;;;;;4941131;28;207236;-72
2022/07/16 00:34:16;;;;;;;7.30;2.10;;;16.10;99.90;;;;;;4957987;28;269026;-72
2022/07/16 00:36:43;;;;;;;10.75;2.10;;;16.10;99.90;;;;;;4936431;28;206828;-72
2022/07/16 00:39:10;;;;;;;7.45;2.00;;;16.10;99.90;;;;;;4950135;28;265324;-70
2022/07/16 00:41:38;;;;;;;8.05;2.03;;;16.10;99.90;;;;;;4935017;28;205300;-72
2022/07/16 00:44:07;;;;;;;9.45;2.10;;;16.20;99.90;;;;;;4991328;28;20421;-72
2022/07/16 00:46:34;;;;;;;7.60;2.00;;;16.20;99.90;;;;;;4912311;28;206723;-72
2022/07/16 00:49:01;;;;;;;6.65;1.98;;;16.20;99.90;;;;;;4962036;28;20043;-72
2022/07/16 00:51:28;;;;;;;8.40;2.10;;;16.20;99.90;;;;;;4920311;28;213434;-72
2022/07/16 00:53:55;;;;;;;8.73;2.30;;;16.20;99.90;;;;;;4998254;28;20141;-72
2022/07/16 00:56:23;;;;;;;7.80;2.13;;;16.20;99.90;;;;;;4923661;28;206108;-72
2022/07/16 00:58:49;;;;;;;7.60;2.00;;;16.20;99.90;;;;;;4983579;28;20557;-72
2022/07/16 01:01:16;;;;;;;13.23;2.30;;;16.20;99.90;;;;;;4923105;28;201248;-72
2022/07/16 01:03:43;;;;;;;7.25;2.30;;;16.20;99.90;;;;;;4973533;28;20057;-72
2022/07/16 01:06:11;;;;;;;8.93;2.30;;;16.30;99.90;;;;;;4906177;28;206923;-72
2022/07/16 01:08:40;;;;;;;10.10;2.30;;;16.20;99.90;;;;;;4950019;28;20070;-73
2022/07/16 01:11:08;;;;;;;8.10;2.40;;;16.30;99.90;;;;;;4917180;28;204792;-72
2022/07/16 01:13:35;;;;;;;8.15;2.40;;;16.20;99.90;;;;;;4959276;28;20416;-71
2022/07/16 01:16:02;;;;;;;8.32;3.00;;;16.10;99.90;;;;;;4924154;28;215719;-71
2022/07/16 01:18:30;;;;;;;11.60;4.25;;;15.90;99.90;;;;;;4968919;28;20058;-73
2022/07/16 01:20:56;;;;;;;9.73;3.90;;;15.70;99.90;;;;;;4933636;28;249906;-75
2022/07/16 01:23:23;;;;;;;11.20;4.60;;;15.70;99.90;;;;;;4953063;28;20085;-74
2022/07/16 01:25:51;;;;;;;10.73;4.82;;;15.60;99.90;;;;;;4931269;28;191002;-75
2022/07/16 01:28:18;;;;;;;12.45;5.20;;;15.50;99.90;;;;;;4968920;28;20065;-76
2022/07/16 01:30:44;;;;;;;10.55;4.55;;;15.40;99.90;;;;;;4913373;28;206021;-75
2022/07/16 01:33:23;;;;;;;13.77;4.93;;;15.30;99.90;;;;;;4967916;28;20526;-74
2022/07/16 01:35:51;;;;;;;10.75;4.85;;;15.30;99.90;;;;;;4923913;28;204710;-75
2022/07/16 01:38:18;;;;;;;10.45;4.20;;;15.30;99.90;;;;;;4963779;28;20059;-75
2022/07/16 01:40:44;;;;;;;9.38;4.10;;;15.20;99.90;;;;;;4899115;28;221826;-74
2022/07/16 01:43:18;;;;;;;10.10;4.35;;;15.20;99.90;;;;;;4967598;28;20164;-74
2022/07/16 01:45:45;;;;;;;8.80;3.85;;;15.20;99.90;;;;;;4926635;28;172154;-75
2022/07/16 01:48:13;;;;;;;8.38;3.85;;;15.20;99.90;;;;;;4969294;28;20515;-75
2022/07/16 01:50:40;;;;;;;9.90;4.17;;;15.20;99.90;;;;;;4919620;28;226313;-75
2022/07/16 01:53:07;;;;;;;11.65;4.50;;;15.10;99.90;;;;;;4956558;28;20063;-75
2022/07/16 01:55:33;;;;;;;11.45;4.50;;;15.20;99.90;;;;;;4914494;28;242801;-75
2022/07/16 01:58:01;;;;;;;11.45;4.30;;;15.20;99.90;;;;;;4957175;28;20051;-75
2022/07/16 02:00:27;;;;;;;12.00;4.30;;;15.20;99.90;;;;;;4912810;28;230550;-75
2022/07/16 02:02:53;;;;;;;11.13;4.55;;;15.20;99.90;;;;;;4948884;28;20060;-75
2022/07/16 02:05:20;;;;;;;12.43;4.32;;;15.20;99.90;;;;;;4914156;28;198922;-75
2022/07/16 02:07:46;;;;;;;12.07;4.60;;;15.20;99.90;;;;;;4932025;28;149081;-75
2022/07/16 02:10:12;;;;;;;9.93;4.47;;;15.20;99.90;;;;;;4961895;28;218928;-75
2022/07/16 02:12:38;;;;;;;9.80;4.43;;;15.30;99.90;;;;;;4924540;28;177794;-75
2022/07/16 02:15:06;;;;;;;10.98;4.65;;;15.20;99.90;;;;;;4967300;28;20053;-74
2022/07/16 02:17:32;;;;;;;12.23;4.32;;;15.20;99.90;;;;;;4913131;28;207811;-75
2022/07/16 02:19:58;;;;;;;11.18;4.70;;;15.20;99.90;;;;;;4956426;28;269333;-76
2022/07/16 02:22:24;;;;;;;10.32;4.35;;;15.20;99.90;;;;;;4919743;28;204111;-75
2022/07/16 02:24:50;;;;;;;12.32;4.90;;;15.20;99.90;;;;;;4973876;28;78514;-75
2022/07/16 02:27:16;;;;;;;12.73;4.70;;;15.20;99.90;;;;;;4920118;28;212077;-75
2022/07/16 02:29:42;;;;;;;12.63;4.47;;;15.20;99.90;;;;;;4956081;28;202819;-74
2022/07/16 02:32:09;;;;;;;12.85;4.22;;;15.20;99.90;;;;;;4917249;28;209777;-75
2022/07/16 02:34:37;;;;;;;12.35;4.18;;;15.20;99.90;;;;;;4961229;28;36325;-75
2022/07/16 02:37:03;;;;;;;12.90;4.03;;;15.20;99.90;;;;;;4922278;28;166156;-74
2022/07/16 02:39:31;;;;;;;13.95;4.05;;;15.20;99.90;;;;;;4980391;28;259247;-74
2022/07/16 02:41:57;;;;;;;12.25;3.78;;;15.10;99.90;;;;;;4911700;28;175502;-74
2022/07/16 02:44:23;;;;;;;12.85;3.83;;;15.10;99.90;;;;;;4963364;28;268442;-74
2022/07/16 02:46:49;;;;;;;14.50;3.58;;;15.10;99.90;;;;;;4925349;28;216504;-74
2022/07/16 02:49:15;;;;;;;12.63;3.83;;;15.10;99.90;;;;;;4945102;28;252539;-74
2022/07/16 02:51:41;;;;;;;18.02;3.60;;;15.10;99.90;;;;;;4919938;28;209427;-75
2022/07/16 02:54:07;;;;;;;12.00;3.20;;;15.10;99.90;;;;;;4968139;28;20058;-75
2022/07/16 02:56:34;;;;;;;10.73;3.08;;;15.10;99.90;;;;;;4912590;28;272868;-74
2022/07/16 02:59:00;;;;;;;9.63;2.78;;;15.00;99.90;;;;;;4971572;28;20078;-74
2022/07/16 03:01:26;;;;;;;10.90;2.78;;;15.00;99.90;;;;;;4922559;28;234454;-74
2022/07/16 03:03:52;;;;;;;10.43;2.78;;;15.00;99.90;;;;;;4966920;28;20059;-76
2022/07/16 03:06:19;;;;;;;8.77;2.42;;;15.00;99.90;;;;;;4912043;28;182579;-75
2022/07/16 03:08:46;;;;;;;11.68;2.40;;;15.00;99.90;;;;;;4974848;28;20062;-75
2022/07/16 03:11:12;;;;;;;10.30;2.78;;;14.90;99.90;;;;;;4916041;28;208994;-75
2022/07/16 03:13:38;;;;;;;11.32;2.38;;;14.90;99.90;;;;;;4988924;28;20500;-75
2022/07/16 03:16:05;;;;;;;10.15;2.38;;;14.90;99.90;;;;;;4919850;28;210196;-75
2022/07/16 03:18:31;;;;;;;10.00;2.13;;;14.90;99.90;;;;;;4968336;28;20058;-75
2022/07/16 03:20:57;;;;;;;11.98;2.28;;;14.80;99.90;;;;;;4905681;28;205918;-75
2022/07/16 03:23:23;;;;;;;10.40;2.10;;;14.80;99.90;;;;;;4948226;28;20054;-75
2022/07/16 03:25:49;;;;;;;8.20;2.22;;;14.70;99.90;;;;;;4929031;28;203632;-75
2022/07/16 03:28:15;;;;;;;10.32;2.17;;;14.60;99.90;;;;;;4968094;28;20134;-76
2022/07/16 03:30:41;;;;;;;13.43;2.40;;;14.60;99.90;;;;;;4925334;28;205813;-75
2022/07/16 03:33:07;;;;;;;10.15;2.10;;;14.50;99.90;;;;;;4968976;28;20077;-76
2022/07/16 03:35:34;;;;;;;10.55;2.22;;;14.50;99.90;;;;;;4913665;28;217775;-75
2022/07/16 03:41:01;;;;;;;;;;;14.30;99.90;;;;;;4923314;28;209210;-76
2022/07/16 03:43:28;;;;;;;8.57;2.10;;;14.30;99.90;;;;;;4969001;28;19921;-75
2022/07/16 03:45:54;;;;;;;8.90;2.20;;;14.20;99.90;;;;;;4906594;28;206993;-75
2022/07/16 03:48:20;;;;;;;9.48;2.63;;;14.20;99.90;;;;;;4957268;28;20516;-75
2022/07/16 03:50:46;;;;;;;10.75;2.50;;;14.20;99.90;;;;;;4941146;28;162059;-75
2022/07/16 03:53:13;;;;;;;11.35;2.42;;;14.10;99.90;;;;;;4940573;28;20346;-75
2022/07/16 03:55:39;;;;;;;12.63;2.50;;;14.10;99.90;;;;;;4921177;28;207793;-75
2022/07/16 03:58:05;;;;;;;8.95;2.67;;;14.10;99.90;;;;;;4955362;28;20054;-75
2022/07/16 04:00:31;;;;;;;11.27;2.20;;;14.10;99.90;;;;;;4940176;28;206122;-75
2022/07/16 04:02:57;;;;;;;8.75;2.55;;;14.10;99.90;;;;;;4972909;28;20046;-75
2022/07/16 04:05:23;;;;;;;11.30;2.85;;;14.00;99.90;;;;;;4920667;28;210875;-75
2022/07/16 04:07:49;;;;;;;10.10;2.60;;;14.00;99.90;;;;;;4960834;28;20060;-75
2022/07/16 04:10:16;;;;;;;9.85;2.40;;;14.00;99.90;;;;;;4960541;28;106291;-75
2022/07/16 04:12:42;;;;;;;10.18;2.55;;;14.10;99.90;;;;;;4911273;28;207515;-75
2022/07/16 04:15:08;;;;;;;11.88;2.58;;;14.10;99.90;;;;;;4961308;28;164962;-74
2022/07/16 04:17:34;;;;;;;11.50;2.75;;;14.10;99.90;;;;;;4916590;28;177710;-75
2022/07/16 04:20:00;;;;;;;10.65;2.53;;;14.10;99.90;;;;;;4958782;28;123628;-75
2022/07/16 04:22:27;;;;;;;10.95;2.22;;;14.10;99.90;;;;;;4916497;28;210969;-76
2022/07/16 04:24:53;;;;;;;14.50;2.50;;;14.10;99.90;;;;;;4958319;28;235641;-75
2022/07/16 04:27:19;;;;;;;9.48;2.60;;;14.10;99.90;;;;;;4936807;28;136559;-75
2022/07/16 04:29:45;;;;;;;11.27;2.63;;;14.10;99.90;;;;;;4944463;28;29756;-75
2022/07/16 04:32:11;;;;;;;10.85;2.42;;;14.10;99.90;;;;;;4921593;28;209833;-75
2022/07/16 04:34:38;;;;;;;10.25;2.50;;;14.10;99.90;;;;;;4958327;28;136189;-75
2022/07/16 04:37:04;;;;;;;9.43;2.33;;;14.20;99.90;;;;;;4934084;28;206196;-75
2022/07/16 04:39:30;;;;;;;11.68;2.28;;;14.20;99.90;;;;;;4946027;28;266063;-75
2022/07/16 04:41:56;;;;;;;12.32;2.58;;;14.20;99.90;;;;;;4934239;28;209977;-76
2022/07/16 04:44:22;;;;;;;15.05;2.65;;;14.20;99.90;;;;;;4947256;28;271228;-75
2022/07/16 04:46:48;;;;;;;10.27;2.40;;;14.20;99.90;;;;;;4925238;28;205130;-75
2022/07/16 04:49:14;;;;;;;9.63;2.40;;;14.30;99.90;;;;;;4942660;28;252437;-75
2022/07/16 04:51:40;;;;;;;9.70;2.40;;;14.30;99.90;;;;;;4930849;28;210312;-75
2022/07/16 04:54:06;;;;;;;11.13;2.30;;;14.20;99.90;;;;;;4967703;28;20550;-75
2022/07/16 04:56:33;;;;;;;13.68;2.22;;;14.20;99.90;;;;;;4938758;28;205356;-75
2022/07/16 04:58:59;;;;;;;12.98;2.35;;;14.10;99.90;;;;;;4950963;28;20051;-75
2022/07/16 05:01:25;;;;;;;11.20;2.50;;;14.10;99.90;;;;;;4923408;28;208722;-75
2022/07/16 05:03:51;;;;;;;12.02;2.40;;;14.10;99.90;;;;;;4944963;28;20051;-75
2022/07/16 05:06:17;;;;;;;12.40;2.25;;;14.20;99.90;;;;;;4905464;28;150055;-75
2022/07/16 05:08:43;;;;;;;12.60;2.40;;;14.20;99.90;;;;;;4967982;28;20464;-75
2022/07/16 05:11:10;;;;;;;11.07;2.15;;;14.10;99.90;;;;;;4921827;28;205666;-74
2022/07/16 05:13:36;;;;;;;10.80;2.00;;;14.20;99.90;;;;;;4965277;28;20065;-75
2022/07/16 05:16:03;;;;;;;10.73;1.90;;;14.20;99.90;;;;;;4919789;28;215419;-75
2022/07/16 05:18:29;;;;;;;13.13;2.13;;;14.20;99.90;;;;;;4942921;28;20054;-75
2022/07/16 05:20:55;;;;;;;14.50;2.15;;;14.30;99.90;;;;;;4928144;28;207343;-76
2022/07/16 05:23:21;;;;;;;12.75;2.15;;;14.30;99.90;;;;;;4969942;28;20389;-76
2022/07/16 05:25:47;;;;;;;12.73;2.50;;;14.40;99.90;;;;;;4926162;28;217861;-76
2022/07/16 05:28:13;;;;;;;11.27;1.88;;;14.40;99.90;;;;;;4948696;28;20058;-76
2022/07/16 05:30:39;;;;;;;11.00;1.85;;;14.40;99.90;;;;;;4926897;28;170397;-76
2022/07/16 05:33:06;;;;;;;10.77;1.98;;;14.50;99.90;;;;;;4970108;28;20061;-76
2022/07/16 05:35:32;;;;;;;12.25;2.00;;;14.50;99.90;;;;;;4927260;28;210668;-76
2022/07/16 05:37:58;;;;;;;11.40;1.95;;;14.60;99.90;;;;;;4968031;28;20061;-76
2022/07/16 05:40:24;;;;;;;10.65;1.83;;;14.60;99.90;;;;;;4921782;28;206216;-76
2022/07/16 05:42:50;;;;;;;10.18;1.70;;;14.70;99.90;;;;;;4967802;28;20081;-75
2022/07/16 05:45:17;;;;;;;12.40;2.00;;;14.80;99.90;;;;;;4951168;28;200802;-73
2022/07/16 05:47:44;;;;;;;8.65;1.45;;;14.80;99.90;;;;;;4959852;28;100665;-76
2022/07/16 05:50:10;;;;;;;9.23;1.70;;;14.90;99.90;;;;;;4952131;28;203115;-76
2022/07/16 05:52:36;;;;;;;8.88;1.60;;;14.90;99.90;;;;;;4952136;28;195209;-76
2022/07/16 05:55:03;;;;;;;13.07;1.65;;;15.00;99.90;;;;;;4956323;28;218564;-76
2022/07/16 05:57:29;;;;;;;9.98;2.75;;;15.10;99.90;;;;;;4944366;28;139303;-76
2022/07/16 05:59:55;;;;;;;10.07;1.80;;;15.10;99.90;;;;;;4960485;28;115833;-76
2022/07/16 06:02:21;;;;;;;13.48;1.60;;;15.30;99.90;;;;;;4920795;28;203124;-77
2022/07/16 06:04:47;;;;;;;8.98;1.50;;;15.50;99.90;;;;;;4942282;28;236812;-76
2022/07/16 06:07:13;;;;;;;13.23;1.60;;;15.60;99.90;;;;;;4928182;28;206539;-76
2022/07/16 06:09:39;;;;;;;10.35;1.52;;;15.80;99.90;;;;;;4958525;28;199886;-77
2022/07/16 06:12:06;;;;;;;9.13;1.40;;;16.10;99.90;;;;;;4938893;28;207754;-77
2022/07/16 06:14:32;;;;;;;12.15;1.73;;;16.30;99.90;;;;;;4987559;28;261263;-77
2022/07/16 06:16:58;;;;;;;7.20;1.00;;;16.40;99.90;;;;;;4943619;28;206447;-77
2022/07/16 06:19:24;;;;;;;12.13;1.55;;;16.60;99.90;;;;;;4949509;28;260040;-77
2022/07/16 06:21:50;;;;;;;10.18;1.30;;;16.70;99.90;;;;;;4925754;28;170835;-77
2022/07/16 06:24:16;;;;;;;7.72;1.13;;;16.80;99.90;;;;;;4981102;28;255935;-78
2022/07/16 06:26:46;;;;;;;12.13;1.50;;;16.90;99.90;;;;;;4941946;28;206374;-77
2022/07/16 06:29:16;;;;;;;8.43;1.20;;;17.00;99.90;;;;;;4959150;28;261500;-76
2022/07/16 06:31:44;;;;;;;9.18;1.42;;;17.10;99.90;;;;;;4940849;28;205951;-77
2022/07/16 06:34:11;;;;;;;6.93;1.40;;;16.90;99.90;;;;;;4962292;28;254855;-72
2022/07/16 06:36:37;;;;;;;11.20;1.63;;;17.10;99.90;;;;;;4958467;28;201486;-77
2022/07/16 06:39:04;;;;;;;9.90;1.33;;;17.30;99.90;;;;;;4968635;28;20059;-77
2022/07/16 06:41:30;;;;;;;11.65;1.40;;;17.30;99.90;;;;;;4900203;28;206712;-75
2022/07/16 06:43:57;;;;;;;9.20;1.20;;;17.40;99.90;;;;;;4989543;28;20066;-75
2022/07/16 06:46:23;;;;;;;9.70;1.27;;;17.50;99.90;;;;;;4908181;28;248199;-75
2022/07/16 06:48:49;;;;;;;8.18;0.93;;;17.50;99.90;;;;;;4959065;28;20282;-76
2022/07/16 06:51:15;;;;;;;9.02;1.27;;;17.80;99.90;;;;;;4927873;28;233047;-78
2022/07/16 06:53:41;;;;;;;7.50;1.13;;;18.00;99.90;;;;;;4989903;28;20055;-76
2022/07/16 06:56:07;;;;;;;8.23;1.20;;;18.20;99.90;;;;;;4946707;28;206577;-76
2022/07/16 06:58:34;;;;;;;9.70;1.20;;;18.50;99.90;;;;;;4984816;28;20054;-77
2022/07/16 07:01:01;;;;;;;7.65;1.10;;;18.40;99.90;;;;;;4931353;28;240414;-76
2022/07/16 07:03:28;;;;;;;9.93;1.40;;;18.30;99.80;;;;;;4967078;28;20058;-76
2022/07/16 07:05:54;;;;;;;5.70;0.90;;;18.40;99.90;;;;;;4911918;28;209463;-76
2022/07/16 07:08:20;;;;;;;7.63;1.10;;;18.50;99.90;;;;;;4941340;28;20077;-73
2022/07/16 07:10:46;;;;;;;8.20;1.13;;;18.80;99.90;;;;;;4927115;28;176013;-73
2022/07/16 07:13:12;;;;;;;6.85;1.02;;;18.80;99.90;;;;;;4980473;28;20051;-72
2022/07/16 07:15:38;;;;;;;7.47;1.13;;;18.70;99.30;;;;;;4899160;28;206281;-73
2022/07/16 07:18:04;;;;;;;9.82;1.10;;;18.60;97.20;;;;;;4979647;28;20046;-72
2022/07/16 07:20:31;;;;;;;4.03;0.70;;;18.50;96.00;;;;;;4915331;28;206415;-70
2022/07/16 07:22:57;;;;;;;9.63;1.13;;;18.20;96.20;;;;;;4968719;28;20039;-70
2022/07/16 07:25:23;;;;;;;7.78;1.00;;;18.20;96.50;;;;;;4927665;28;254244;-70
2022/07/16 07:27:49;;;;;;;6.60;0.93;;;18.60;98.60;;;;;;4986135;28;20046;-70
2022/07/16 07:30:15;;;;;;;7.72;1.10;;;19.10;99.10;;;;;;4964854;28;273569;-70
2022/07/16 07:32:42;;;;;;;10.02;1.00;;;19.30;99.00;;;;;;4912932;28;264950;-71
2022/07/16 07:35:08;;;;;;;8.93;1.27;;;19.30;95.70;;;;;;4961025;28;188090;-71
2022/07/16 07:37:34;;;;;;;9.18;1.25;;;19.30;95.80;;;;;;4946953;28;156200;-71
2022/07/16 07:40:03;;;;;;;8.55;1.60;;;19.00;94.40;;;;;;4960165;28;266564;-71
2022/07/16 07:42:30;;;;;;;8.85;1.20;;;18.80;96.00;;;;;;4930456;28;232532;-71
2022/07/16 07:44:56;;;;;;;6.50;1.00;;;18.50;95.60;;;;;;4957350;28;300093;-71
2022/07/16 07:47:22;;;;;;;8.25;1.30;;;18.40;95.80;;;;;;4923584;28;208510;-73
2022/07/16 07:49:48;;;;;;;8.98;1.48;;;18.40;95.70;;;;;;4959068;28;259354;-70
2022/07/16 07:52:14;;;;;;;9.02;1.25;;;18.70;94.80;;;;;;4943200;28;210497;-71
2022/07/16 07:54:41;;;;;;;6.25;1.00;;;19.20;94.00;;;;;;4954531;28;224957;-71
2022/07/16 07:57:07;;;;;;;7.22;1.00;;;19.00;94.50;;;;;;4911751;28;206341;-72
2022/07/16 07:59:33;;;;;;;7.32;1.10;;;18.80;91.20;;;;;;4951758;28;256535;-73
2022/07/16 08:01:59;;;;;;;9.50;1.40;;;18.80;94.20;;;;;;4960680;28;131711;-72
2022/07/16 08:04:25;;;;;;;10.23;1.27;;;19.30;93.00;;;;;;4921973;28;258493;-71
2022/07/16 08:06:51;;;;;;;7.53;1.10;;;19.80;95.00;;;;;;4930303;28;220068;-72
2022/07/16 08:09:18;;;;;;;8.43;1.07;;;20.10;95.00;;;;;;4949067;28;261595;-72
2022/07/16 08:11:44;;;;;;;7.30;1.10;;;20.30;91.90;;;;;;4948579;28;209015;-73
2022/07/16 08:14:10;;;;;;;7.63;1.10;;;20.10;92.70;;;;;;4956005;28;273124;-72
2022/07/16 08:16:37;;;;;;;9.18;1.25;;;19.90;91.70;;;;;;4959833;28;208607;-74
2022/07/16 08:19:03;;;;;;;10.25;1.17;;;19.60;90.20;;;;;;4950396;28;20047;-73
2022/07/16 08:21:29;;;;;;;8.70;1.17;;;18.80;90.10;;;;;;4921023;28;211410;-74
2022/07/16 08:26:40;;;;;;;8.48;1.20;;;18.30;89.80;;;;;;4896625;28;312260;-71
2022/07/16 08:29:06;;;;;;;7.30;1.20;;;17.90;91.80;;;;;;4971923;28;20062;-72
2022/07/16 08:31:32;;;;;;;7.65;1.23;;;18.20;92.50;;;;;;4910376;28;226932;-72
2022/07/16 08:33:58;;;;;;;7.38;1.10;;;18.70;92.20;;;;;;4947676;28;20046;-73
2022/07/16 08:36:24;;;;;;;7.65;1.20;;;19.20;93.90;;;;;;4927544;28;275682;-72
2022/07/16 08:38:50;;;;;;;9.02;1.13;;;19.90;93.40;;;;;;4959448;28;20046;-72
2022/07/16 08:41:17;;;;;;;11.15;1.42;;;20.30;86.70;;;;;;4932747;28;248100;-73
2022/07/16 08:43:44;;;;;;;7.60;1.10;;;20.90;90.20;;;;;;4950854;28;20050;-74
2022/07/16 08:46:11;;;;;;;6.88;1.15;;;21.40;84.00;;;;;;4935961;28;217474;-73
2022/07/16 08:48:38;;;;;;;4.95;0.90;;;21.80;80.50;;;;;;4962170;28;20424;-74
2022/07/16 08:51:09;;;;;;;6.20;1.00;;;21.50;81.30;;;;;;4932506;28;153919;-75
2022/07/16 08:53:36;;;;;;;5.80;0.90;;;21.10;79.00;;;;;;4979162;28;20061;-73
2022/07/16 08:56:03;;;;;;;9.32;1.10;;;20.90;81.20;;;;;;4915165;28;210529;-73
2022/07/16 08:58:31;;;;;;;9.23;1.38;;;20.60;81.30;;;;;;4959138;28;20523;-72
2022/07/16 09:00:58;;;;;;;8.70;1.05;;;20.60;82.80;;;;;;4921010;28;205128;-72
2022/07/16 09:03:24;;;;;;;7.15;1.10;;;21.00;78.90;;;;;;4965709;28;20077;-73
2022/07/16 09:05:51;;;;;;;9.88;1.27;;;21.30;83.40;;;;;;4905439;28;224142;-74
2022/07/16 09:08:18;;;;;;;7.32;1.15;;;21.00;79.80;;;;;;4983332;28;20046;-74
2022/07/16 09:10:44;;;;;;;9.85;1.27;;;20.80;80.20;;;;;;4935236;28;203778;-75
2022/07/16 09:13:12;;;;;;;8.18;1.20;;;20.70;83.00;;;;;;4978177;28;20061;-76
2022/07/16 09:15:40;;;;;;;9.15;1.20;;;20.40;84.80;;;;;;4928819;28;121858;-76
2022/07/16 09:18:10;;;;;;;7.07;1.25;;;20.10;82.70;;;;;;4965398;28;20485;-76
2022/07/16 09:20:38;;;;;;;7.57;0.93;;;19.80;85.10;;;;;;4915233;28;276892;-76
2022/07/16 09:23:15;;;;;;;10.77;1.33;;;19.60;89.00;;;;;;4975740;28;20051;-75
2022/07/16 09:26:11;;;;;;;11.05;1.58;;;19.70;90.60;;;;;;4913895;28;205723;-73
2022/07/16 09:28:47;;;;;;;8.73;1.42;;;19.80;86.80;;;;;;4960530;28;20058;-74
2022/07/16 09:31:39;;;;;;;10.48;1.23;;;19.90;91.10;;;;;;4924472;28;206903;-74
2022/07/16 09:34:19;;;;;;;9.07;1.40;;;20.80;85.90;;;;;;4980270;28;20043;-75
2022/07/16 09:36:56;;;;;;;15.60;1.77;;;21.30;84.90;;;;;;4919341;28;213507;-76
2022/07/16 09:39:22;;;;;;;7.75;1.15;;;21.80;81.50;;;;;;4940814;28;124009;-79
2022/07/16 09:41:48;;;;;;;9.20;1.10;;;22.10;76.60;;;;;;4925222;28;125356;-76
2022/07/16 09:44:28;;;;;;;9.07;1.45;;;21.50;80.10;;;;;;4925972;28;252537;-77
2022/07/16 09:47:06;;;;;;;6.72;1.10;;;21.40;78.20;;;;;;4930205;28;223245;-74
2022/07/16 09:49:40;;;;;;;9.68;1.15;;;21.00;76.20;;;;;;4948188;28;157976;-76
2022/07/16 09:52:08;;;;;;;7.20;1.30;;;20.50;73.30;;;;;;4926271;28;214241;-77
2022/07/16 09:54:38;;;;;;;10.48;1.45;;;20.40;74.30;;;;;;4941499;28;138173;-75
2022/07/16 09:57:25;;;;;;;8.85;1.50;;;20.60;71.00;;;;;;4910634;28;226242;-75
2022/07/16 09:59:52;;;;;;;7.35;0.82;;;21.00;77.40;;;;;;4970719;28;30657;-76
2022/07/16 10:02:18;;;;;;;6.38;1.00;;;21.50;76.80;;;;;;4928821;28;197369;-77
2022/07/16 10:04:45;;;;;;;6.85;1.27;;;21.50;74.80;;;;;;4926208;28;141451;-77
2022/07/16 10:07:12;;;;;;;7.03;1.30;;;21.50;73.80;;;;;;4937314;28;173106;-76
2022/07/16 10:09:38;;;;;;;7.85;1.27;;;21.80;72.40;;;;;;4962892;28;88831;-77
2022/07/16 10:12:11;;;;;;;7.43;1.30;;;22.10;73.40;;;;;;4922007;28;216335;-76
2022/07/16 10:14:42;;;;;;;7.38;1.35;;;22.70;71.60;;;;;;4954500;28;238900;-75
2022/07/16 10:17:20;;;;;;;8.82;1.40;;;23.00;65.90;;;;;;4936568;28;213003;-75
2022/07/16 10:20:00;;;;;;;8.13;1.20;;;23.30;64.40;;;;;;4967905;28;58707;-75
2022/07/16 10:22:30;;;;;;;10.60;1.23;;;23.10;65.80;;;;;;4954705;28;212142;-75
2022/07/16 10:24:57;;;;;;;5.97;1.02;;;22.80;65.20;;;;;;4971556;28;262793;-75
2022/07/16 10:27:35;;;;;;;9.88;1.60;;;22.50;68.70;;;;;;4924931;28;206133;-74
2022/07/16 10:30:15;;;;;;;7.85;1.25;;;22.00;66.10;;;;;;4965557;28;65190;-75
2022/07/16 10:32:59;;;;;;;9.25;1.10;;;21.90;65.30;;;;;;4914559;28;216430;-75
2022/07/16 10:35:29;;;;;;;7.18;1.10;;;22.40;68.60;;;;;;4924919;28;207766;-75
2022/07/16 10:38:05;;;;;;;9.32;1.48;;;23.20;68.70;;;;;;4975273;28;20047;-75
2022/07/16 10:40:32;;;;;;;8.77;1.30;;;23.50;63.50;;;;;;4916316;28;206755;-77
2022/07/16 10:43:12;;;;;;;8.15;1.38;;;23.20;67.10;;;;;;4972684;28;20416;-76
2022/07/16 10:45:58;;;;;;;8.65;1.20;;;22.80;63.70;;;;;;4916199;28;213707;-75
2022/07/16 10:48:29;;;;;;;8.68;1.40;;;22.50;63.00;;;;;;4948055;28;20055;-77
2022/07/16 10:51:11;;;;;;;8.93;1.40;;;22.20;64.40;;;;;;4919602;28;209289;-77
2022/07/16 10:53:56;;;;;;;8.68;1.42;;;21.90;62.30;;;;;;4951993;28;20055;-78
2022/07/16 10:56:38;;;;;;;10.25;1.52;;;21.90;64.00;;;;;;4905697;28;177992;-76
2022/07/16 10:59:09;;;;;;;9.98;1.30;;;22.40;65.20;;;;;;4970046;28;20696;-76
2022/07/16 11:01:37;;;;;;;7.07;1.40;;;22.10;67.90;;;;;;4904701;28;206195;-76
2022/07/16 11:04:04;;;;;;;11.65;1.50;;;22.00;68.10;;;;;;4974804;28;20049;-77
2022/07/16 11:06:31;;;;;;;7.45;1.38;;;21.80;69.40;;;;;;4912233;28;199951;-76
2022/07/16 11:09:02;;;;;;;7.97;1.35;;;21.50;70.90;;;;;;4967402;28;20516;-77
2022/07/16 11:11:33;;;;;;;7.50;1.20;;;21.50;66.80;;;;;;4939331;28;265013;-75
2022/07/16 11:14:00;;;;;;;8.43;1.33;;;22.00;70.10;;;;;;4962626;28;20051;-77
2022/07/16 11:16:27;;;;;;;7.80;1.17;;;22.40;69.50;;;;;;4900562;28;206270;-77
2022/07/16 11:18:53;;;;;;;9.45;1.45;;;22.40;70.40;;;;;;4959411;28;20051;-75
2022/07/16 11:21:19;;;;;;;7.28;1.20;;;22.40;70.80;;;;;;4926717;28;192909;-76
2022/07/16 11:24:00;;;;;;;8.00;1.38;;;22.00;68.60;;;;;;4968488;28;20500;-75
2022/07/16 11:26:29;;;;;;;9.52;1.30;;;22.00;69.70;;;;;;4920391;28;219186;-75
2022/07/16 11:29:01;;;;;;;8.15;1.20;;;22.60;68.80;;;;;;4998977;28;20055;-74
2022/07/16 11:31:30;;;;;;;9.23;1.30;;;23.00;68.30;;;;;;4924437;28;256696;-75
2022/07/16 11:34:02;;;;;;;8.63;1.25;;;23.60;66.70;;;;;;4972246;28;20118;-76
2022/07/16 11:36:39;;;;;;;6.70;1.10;;;23.40;65.10;;;;;;4898374;28;246049;-75
2022/07/16 11:39:11;;;;;;;10.18;1.20;;;23.20;64.60;;;;;;4966436;28;20065;-75
2022/07/16 11:41:40;;;;;;;8.20;1.33;;;23.90;68.50;;;;;;4907041;28;212763;-74
2022/07/16 11:44:15;;;;;;;10.48;1.30;;;24.40;62.50;;;;;;4974085;28;20421;-76
2022/07/16 11:46:47;;;;;;;6.57;1.13;;;23.90;60.70;;;;;;4925087;28;202485;-76
2022/07/16 11:49:30;;;;;;;8.10;1.15;;;23.60;63.00;;;;;;4947035;28;266736;-75
2022/07/16 11:52:09;;;;;;;9.00;1.45;;;24.00;65.00;;;;;;4945105;28;211534;-77
2022/07/16 11:54:41;;;;;;;9.10;1.10;;;24.60;58.50;;;;;;4937846;28;245738;-76
2022/07/16 11:57:10;;;;;;;7.30;1.40;;;23.80;62.60;;;;;;4953043;28;209865;-76
2022/07/16 11:59:47;;;;;;;7.32;1.30;;;24.60;59.50;;;;;;4934384;28;276126;-73
2022/07/16 12:02:16;;;;;;;7.95;1.25;;;25.50;60.10;;;;;;4930112;28;207050;-73
2022/07/16 12:04:59;;;;;;;9.18;1.40;;;25.40;57.00;;;;;;4940735;28;201814;-78
2022/07/16 12:07:25;;;;;;;9.70;1.38;;;24.00;56.20;;;;;;4932593;28;210789;-74
2022/07/16 12:09:56;;;;;;;6.90;1.25;;;23.30;60.80;;;;;;4940821;28;99009;-75
2022/07/16 12:12:29;;;;;;;8.18;1.20;;;23.40;58.10;;;;;;4941883;28;179954;-75
2022/07/16 12:14:58;;;;;;;7.75;1.23;;;22.80;60.50;;;;;;4952068;28;238374;-75
2022/07/16 12:17:30;;;;;;;9.38;1.65;;;22.40;57.30;;;;;;4951508;28;215225;-73
2022/07/16 12:20:27;;;;;;;9.20;1.30;;;22.00;61.80;;;;;;4961474;28;80473;-73
2022/07/16 12:23:02;;;;;;;6.72;1.00;;;22.70;59.70;;;;;;4906011;28;206720;-73
2022/07/16 12:25:28;;;;;;;8.05;1.20;;;22.80;59.10;;;;;;4900657;28;248893;-73
2022/07/16 12:27:57;;;;;;;8.65;1.33;;;23.40;63.40;;;;;;4987440;28;20051;-72
2022/07/16 12:30:42;;;;;;;7.75;1.20;;;23.60;60.00;;;;;;4923885;28;206293;-72
2022/07/16 12:33:22;;;;;;;9.85;1.50;;;23.40;60.10;;;;;;4953645;28;20519;-73
2022/07/16 12:36:00;;;;;;;7.78;1.40;;;23.50;60.60;;;;;;4915719;28;207953;-71
2022/07/16 12:38:52;;;;;;;8.40;1.27;;;23.90;58.60;;;;;;4964027;28;20070;-70
2022/07/16 12:41:21;;;;;;;7.32;1.20;;;24.30;55.00;;;;;;4922479;28;203004;-71
2022/07/16 12:43:53;;;;;;;8.80;1.30;;;23.90;59.40;;;;;;4967294;28;20416;-71
2022/07/16 12:46:21;;;;;;;8.43;1.50;;;24.50;59.30;;;;;;4914009;28;208558;-72
2022/07/16 12:48:59;;;;;;;11.45;1.58;;;24.50;54.50;;;;;;4958335;28;20524;-72